sensor_id;sensor_type;location;lat;lon;timestamp;pressure;altitude;pressure_sealevel;temperature;humidity
67931;BME280;63902;52.000;5.954;2023-05-20T00:00:44;102071.16;;;11.12;63.35
67931;BME280;63902;52.000;5.954;2023-05-20T00:01:44;102064.06;;;11.11;63.35
67931;BME280;63902;52.000;5.954;2023-05-20T00:02:45;102069.44;;;11.10;63.36
67931;BME280;63902;52.000;5.954;2023-05-20T00:03:45;102072.97;;;11.09;63.47
67931;BME280;63902;52.000;5.954;2023-05-20T00:04:46;102071.25;;;11.08;63.02
67931;BME280;63902;52.000;5.954;2023-05-20T00:05:47;102055.47;;;11.00;63.15
67931;BME280;63902;52.000;5.954;2023-05-20T00:06:47;102073.06;;;11.06;63.05
67931;BME280;63902;52.000;5.954;2023-05-20T00:07:49;102065.16;;;11.04;63.11
67931;BME280;63902;52.000;5.954;2023-05-20T00:08:49;102054.69;;;10.96;64.13
67931;BME280;63902;52.000;5.954;2023-05-20T00:09:50;102066.03;;;11.03;63.10
67931;BME280;63902;52.000;5.954;2023-05-20T00:10:50;102074.91;;;11.04;63.43
67931;BME280;63902;52.000;5.954;2023-05-20T00:11:51;102060.78;;;11.00;64.02
67931;BME280;63902;52.000;5.954;2023-05-20T00:12:51;102068.69;;;11.03;63.85
67931;BME280;63902;52.000;5.954;2023-05-20T00:13:52;102064.31;;;11.02;63.98
67931;BME280;63902;52.000;5.954;2023-05-20T00:14:52;102055.56;;;10.97;63.94
67931;BME280;63902;52.000;5.954;2023-05-20T00:15:53;102058.28;;;10.95;64.00
67931;BME280;63902;52.000;5.954;2023-05-20T00:16:53;102061.72;;;10.99;63.72
67931;BME280;63902;52.000;5.954;2023-05-20T00:17:54;102066.94;;;11.02;63.88
67931;BME280;63902;52.000;5.954;2023-05-20T00:18:54;102069.59;;;11.02;64.09
67931;BME280;63902;52.000;5.954;2023-05-20T00:19:55;102070.53;;;11.00;64.29
67931;BME280;63902;52.000;5.954;2023-05-20T00:20:55;102058.28;;;10.94;64.91
67931;BME280;63902;52.000;5.954;2023-05-20T00:21:56;102067.88;;;11.01;64.58
67931;BME280;63902;52.000;5.954;2023-05-20T00:22:58;102056.41;;;10.99;64.02
67931;BME280;63902;52.000;5.954;2023-05-20T00:23:58;102067.91;;;11.00;64.96
67931;BME280;63902;52.000;5.954;2023-05-20T00:24:59;102068.84;;;10.97;64.18
67931;BME280;63902;52.000;5.954;2023-05-20T00:25:59;102067.03;;;10.99;65.37
67931;BME280;63902;52.000;5.954;2023-05-20T00:27:00;102066.19;;;10.97;64.44
67931;BME280;63902;52.000;5.954;2023-05-20T00:28:00;102063.50;;;10.98;64.24
67931;BME280;63902;52.000;5.954;2023-05-20T00:29:01;102063.53;;;10.97;64.26
67931;BME280;63902;52.000;5.954;2023-05-20T00:30:01;102060.84;;;10.98;66.63
67931;BME280;63902;52.000;5.954;2023-05-20T00:31:02;102067.91;;;11.00;64.81
67931;BME280;63902;52.000;5.954;2023-05-20T00:32:03;102061.72;;;10.99;64.93
67931;BME280;63902;52.000;5.954;2023-05-20T00:33:03;102062.59;;;11.00;65.55
67931;BME280;63902;52.000;5.954;2023-05-20T00:34:03;102065.25;;;11.00;65.35
67931;BME280;63902;52.000;5.954;2023-05-20T00:35:05;102073.19;;;11.00;65.90
67931;BME280;63902;52.000;5.954;2023-05-20T00:36:06;102067.03;;;10.97;65.28
67931;BME280;63902;52.000;5.954;2023-05-20T00:37:06;102066.16;;;10.98;64.56
67931;BME280;63902;52.000;5.954;2023-05-20T00:38:08;102062.63;;;10.98;64.82
67931;BME280;63902;52.000;5.954;2023-05-20T00:39:08;102071.50;;;10.97;64.89
67931;BME280;63902;52.000;5.954;2023-05-20T00:40:10;102060.88;;;10.97;65.10
67931;BME280;63902;52.000;5.954;2023-05-20T00:41:10;102061.72;;;10.97;65.66
67931;BME280;63902;52.000;5.954;2023-05-20T00:42:18;102066.19;;;10.97;64.92
67931;BME280;63902;52.000;5.954;2023-05-20T00:43:19;102060.03;;;10.95;65.79
67931;BME280;63902;52.000;5.954;2023-05-20T00:44:19;102057.31;;;10.98;64.90
67931;BME280;63902;52.000;5.954;2023-05-20T00:45:20;102056.44;;;10.97;65.81
67931;BME280;63902;52.000;5.954;2023-05-20T00:46:20;102066.16;;;10.98;65.04
67931;BME280;63902;52.000;5.954;2023-05-20T00:47:24;102070.53;;;11.00;66.54
67931;BME280;63902;52.000;5.954;2023-05-20T00:48:28;102058.19;;;10.98;65.05
67931;BME280;63902;52.000;5.954;2023-05-20T00:49:32;102060.00;;;10.96;65.21
67931;BME280;63902;52.000;5.954;2023-05-20T00:50:32;102068.84;;;10.97;64.80
67931;BME280;63902;52.000;5.954;2023-05-20T00:51:33;102060.91;;;10.95;65.69
67931;BME280;63902;52.000;5.954;2023-05-20T00:52:35;102060.91;;;10.95;66.47
67931;BME280;63902;52.000;5.954;2023-05-20T00:53:37;102058.34;;;10.92;65.61
67931;BME280;63902;52.000;5.954;2023-05-20T00:54:38;102058.34;;;10.91;66.34
67931;BME280;63902;52.000;5.954;2023-05-20T00:55:39;102058.34;;;10.91;66.84
67931;BME280;63902;52.000;5.954;2023-05-20T00:56:40;102058.34;;;10.91;67.18
67931;BME280;63902;52.000;5.954;2023-05-20T00:57:41;102058.38;;;10.89;66.45
67931;BME280;63902;52.000;5.954;2023-05-20T00:58:42;102058.38;;;10.89;66.13
67931;BME280;63902;52.000;5.954;2023-05-20T00:59:42;102063.69;;;10.89;65.93
67931;BME280;63902;52.000;5.954;2023-05-20T01:00:43;102049.69;;;10.84;65.73
67931;BME280;63902;52.000;5.954;2023-05-20T01:01:43;102043.44;;;10.85;66.35
67931;BME280;63902;52.000;5.954;2023-05-20T01:02:44;102047.03;;;10.83;66.12
67931;BME280;63902;52.000;5.954;2023-05-20T01:03:45;102050.63;;;10.82;66.30
67931;BME280;63902;52.000;5.954;2023-05-20T01:04:45;102047.97;;;10.80;65.96
67931;BME280;63902;52.000;5.954;2023-05-20T01:05:46;102048.91;;;10.79;66.26
67931;BME280;63902;52.000;5.954;2023-05-20T01:06:46;102049.78;;;10.78;66.22
67931;BME280;63902;52.000;5.954;2023-05-20T01:07:47;102048.97;;;10.76;66.49
67931;BME280;63902;52.000;5.954;2023-05-20T01:08:49;102046.31;;;10.76;66.51
67931;BME280;63902;52.000;5.954;2023-05-20T01:09:49;102048.13;;;10.74;65.97
67931;BME280;63902;52.000;5.954;2023-05-20T01:10:53;102035.06;;;10.65;66.80
67931;BME280;63902;52.000;5.954;2023-05-20T01:12:02;102030.53;;;10.70;67.02
67931;BME280;63902;52.000;5.954;2023-05-20T01:13:08;102044.66;;;10.70;67.58
67931;BME280;63902;52.000;5.954;2023-05-20T01:14:12;102051.75;;;10.70;67.08
67931;BME280;63902;52.000;5.954;2023-05-20T01:15:15;102038.59;;;10.65;66.63
67931;BME280;63902;52.000;5.954;2023-05-20T01:16:17;102037.72;;;10.65;67.38
67931;BME280;63902;52.000;5.954;2023-05-20T01:17:19;102043.84;;;10.67;67.70
67931;BME280;63902;52.000;5.954;2023-05-20T01:18:22;102038.59;;;10.65;67.73
67931;BME280;63902;52.000;5.954;2023-05-20T01:19:28;102036.78;;;10.67;68.81
67931;BME280;63902;52.000;5.954;2023-05-20T01:20:30;102040.31;;;10.66;67.96
67931;BME280;63902;52.000;5.954;2023-05-20T01:21:32;102034.19;;;10.64;67.97
67931;BME280;63902;52.000;5.954;2023-05-20T01:22:36;102036.94;;;10.60;67.52
67931;BME280;63902;52.000;5.954;2023-05-20T01:23:37;102038.59;;;10.65;69.22
67931;BME280;63902;52.000;5.954;2023-05-20T01:24:39;102042.16;;;10.64;67.65
67931;BME280;63902;52.000;5.954;2023-05-20T01:25:40;102048.34;;;10.63;68.03
67931;BME280;63902;52.000;5.954;2023-05-20T01:26:40;102045.63;;;10.66;69.28
67931;BME280;63902;52.000;5.954;2023-05-20T01:27:41;102043.03;;;10.65;68.50
67931;BME280;63902;52.000;5.954;2023-05-20T01:28:41;102043.88;;;10.65;67.74
67931;BME280;63902;52.000;5.954;2023-05-20T01:29:42;102035.16;;;10.60;67.76
67931;BME280;63902;52.000;5.954;2023-05-20T01:30:48;102046.56;;;10.64;68.45
67931;BME280;63902;52.000;5.954;2023-05-20T01:31:50;102038.72;;;10.59;67.68
67931;BME280;63902;52.000;5.954;2023-05-20T01:32:54;102030.91;;;10.53;67.64
67931;BME280;63902;52.000;5.954;2023-05-20T01:33:57;102046.63;;;10.61;67.37
67931;BME280;63902;52.000;5.954;2023-05-20T01:34:59;102045.75;;;10.62;67.39
67931;BME280;63902;52.000;5.954;2023-05-20T01:35:59;102030.72;;;10.61;67.69
67931;BME280;63902;52.000;5.954;2023-05-20T01:37:01;102037.00;;;10.57;68.42
67931;BME280;63902;52.000;5.954;2023-05-20T01:38:04;102041.41;;;10.58;68.55
67931;BME280;63902;52.000;5.954;2023-05-20T01:39:05;102037.78;;;10.62;68.36
67931;BME280;63902;52.000;5.954;2023-05-20T01:40:07;102043.97;;;10.61;67.88
67931;BME280;63902;52.000;5.954;2023-05-20T01:41:08;102036.94;;;10.60;67.79
67931;BME280;63902;52.000;5.954;2023-05-20T01:42:09;102041.44;;;10.56;68.80
67931;BME280;63902;52.000;5.954;2023-05-20T01:43:10;102032.56;;;10.59;68.29
67931;BME280;63902;52.000;5.954;2023-05-20T01:44:11;102024.63;;;10.56;67.78
67931;BME280;63902;52.000;5.954;2023-05-20T01:45:12;102025.47;;;10.58;68.19
67931;BME280;63902;52.000;5.954;2023-05-20T01:46:14;102035.22;;;10.59;67.99
67931;BME280;63902;52.000;5.954;2023-05-20T01:47:14;102029.91;;;10.59;68.91
67931;BME280;63902;52.000;5.954;2023-05-20T01:48:15;102031.66;;;10.58;68.52
67931;BME280;63902;52.000;5.954;2023-05-20T01:49:15;102030.75;;;10.59;68.61
67931;BME280;63902;52.000;5.954;2023-05-20T01:50:16;102029.91;;;10.59;68.40
67931;BME280;63902;52.000;5.954;2023-05-20T01:51:16;102032.56;;;10.59;68.33
67931;BME280;63902;52.000;5.954;2023-05-20T01:52:17;102029.91;;;10.59;69.25
67931;BME280;63902;52.000;5.954;2023-05-20T01:53:19;102023.69;;;10.58;69.18
67931;BME280;63902;52.000;5.954;2023-05-20T01:54:19;102022.88;;;10.56;68.75
67931;BME280;63902;52.000;5.954;2023-05-20T01:55:20;102029.00;;;10.58;68.92
67931;BME280;63902;52.000;5.954;2023-05-20T01:56:20;102023.66;;;10.60;70.17
67931;BME280;63902;52.000;5.954;2023-05-20T01:57:21;102021.88;;;10.62;70.06
67931;BME280;63902;52.000;5.954;2023-05-20T01:58:22;102030.72;;;10.61;68.72
67931;BME280;63902;52.000;5.954;2023-05-20T01:59:23;102026.28;;;10.61;68.90
67931;BME280;63902;52.000;5.954;2023-05-20T02:00:23;102025.41;;;10.61;68.93
67931;BME280;63902;52.000;5.954;2023-05-20T02:01:24;102021.03;;;10.60;69.43
67931;BME280;63902;52.000;5.954;2023-05-20T02:02:24;102009.63;;;10.55;69.00
67931;BME280;63902;52.000;5.954;2023-05-20T02:03:25;102025.41;;;10.61;69.01
67931;BME280;63902;52.000;5.954;2023-05-20T02:04:25;102027.19;;;10.60;69.05
67931;BME280;63902;52.000;5.954;2023-05-20T02:05:26;102017.50;;;10.59;68.73
67931;BME280;63902;52.000;5.954;2023-05-20T02:06:26;102024.53;;;10.60;68.97
67931;BME280;63902;52.000;5.954;2023-05-20T02:07:27;102022.81;;;10.59;68.84
67931;BME280;63902;52.000;5.954;2023-05-20T02:08:29;102023.66;;;10.60;68.88
67931;BME280;63902;52.000;5.954;2023-05-20T02:09:29;102024.53;;;10.60;69.28
67931;BME280;63902;52.000;5.954;2023-05-20T02:10:29;102016.63;;;10.59;70.01
67931;BME280;63902;52.000;5.954;2023-05-20T02:11:30;102013.09;;;10.58;69.29
67931;BME280;63902;52.000;5.954;2023-05-20T02:12:31;102021.94;;;10.59;69.14
67931;BME280;63902;52.000;5.954;2023-05-20T02:13:31;102021.94;;;10.59;69.05
67931;BME280;63902;52.000;5.954;2023-05-20T02:14:31;102021.97;;;10.56;68.84
67931;BME280;63902;52.000;5.954;2023-05-20T02:15:32;102020.25;;;10.55;68.59
67931;BME280;63902;52.000;5.954;2023-05-20T02:16:32;102023.81;;;10.53;69.11
67931;BME280;63902;52.000;5.954;2023-05-20T02:17:33;102013.28;;;10.50;70.39
67931;BME280;63902;52.000;5.954;2023-05-20T02:18:33;102022.03;;;10.52;69.48
67931;BME280;63902;52.000;5.954;2023-05-20T02:19:34;102015.88;;;10.52;69.90
67931;BME280;63902;52.000;5.954;2023-05-20T02:20:34;102026.47;;;10.52;69.37
67931;BME280;63902;52.000;5.954;2023-05-20T02:21:35;102015.88;;;10.52;69.87
67931;BME280;63902;52.000;5.954;2023-05-20T02:22:36;102012.44;;;10.47;70.82
67931;BME280;63902;52.000;5.954;2023-05-20T02:23:38;102020.31;;;10.51;69.71
67931;BME280;63902;52.000;5.954;2023-05-20T02:24:38;102019.44;;;10.51;69.38
67931;BME280;63902;52.000;5.954;2023-05-20T02:25:39;102015.00;;;10.51;69.41
67931;BME280;63902;52.000;5.954;2023-05-20T02:26:39;102025.63;;;10.50;69.67
67931;BME280;63902;52.000;5.954;2023-05-20T02:27:40;102021.25;;;10.49;69.42
67931;BME280;63902;52.000;5.954;2023-05-20T02:28:40;102030.94;;;10.50;69.51
67931;BME280;63902;52.000;5.954;2023-05-20T02:29:41;102013.28;;;10.50;69.95
67931;BME280;63902;52.000;5.954;2023-05-20T02:30:42;102025.63;;;10.50;69.68
67931;BME280;63902;52.000;5.954;2023-05-20T02:31:43;102023.03;;;10.48;69.95
67931;BME280;63902;52.000;5.954;2023-05-20T02:32:43;102023.06;;;10.47;70.91
67931;BME280;63902;52.000;5.954;2023-05-20T02:33:44;102016.88;;;10.46;70.55
67931;BME280;63902;52.000;5.954;2023-05-20T02:34:44;102023.06;;;10.47;70.12
67931;BME280;63902;52.000;5.954;2023-05-20T02:35:45;102021.31;;;10.46;70.12
67931;BME280;63902;52.000;5.954;2023-05-20T02:36:45;102018.66;;;10.46;70.00
67931;BME280;63902;52.000;5.954;2023-05-20T02:37:46;102011.56;;;10.46;69.99
67931;BME280;63902;52.000;5.954;2023-05-20T02:38:47;102016.09;;;10.43;69.78
67931;BME280;63902;52.000;5.954;2023-05-20T02:39:48;102013.44;;;10.43;69.99
67931;BME280;63902;52.000;5.954;2023-05-20T02:40:48;102004.59;;;10.42;70.02
67931;BME280;63902;52.000;5.954;2023-05-20T02:41:49;102013.50;;;10.40;70.64
67931;BME280;63902;52.000;5.954;2023-05-20T02:42:49;102012.56;;;10.41;70.37
67931;BME280;63902;52.000;5.954;2023-05-20T02:43:50;102010.00;;;10.38;70.70
67931;BME280;63902;52.000;5.954;2023-05-20T02:44:50;101998.44;;;10.40;70.63
67931;BME280;63902;52.000;5.954;2023-05-20T02:45:51;102007.31;;;10.39;70.70
67931;BME280;63902;52.000;5.954;2023-05-20T02:46:51;102007.34;;;10.38;70.54
67931;BME280;63902;52.000;5.954;2023-05-20T02:47:52;102004.69;;;10.38;71.19
67931;BME280;63902;52.000;5.954;2023-05-20T02:48:52;102002.91;;;10.38;70.92
67931;BME280;63902;52.000;5.954;2023-05-20T02:49:53;101993.22;;;10.36;70.47
67931;BME280;63902;52.000;5.954;2023-05-20T02:50:53;101990.63;;;10.34;70.84
67931;BME280;63902;52.000;5.954;2023-05-20T02:51:54;101999.41;;;10.36;71.52
67931;BME280;63902;52.000;5.954;2023-05-20T02:52:54;101990.56;;;10.36;71.16
67931;BME280;63902;52.000;5.954;2023-05-20T02:53:56;101988.00;;;10.33;71.02
67931;BME280;63902;52.000;5.954;2023-05-20T02:54:57;101987.13;;;10.32;71.10
67931;BME280;63902;52.000;5.954;2023-05-20T02:55:57;101993.38;;;10.29;71.05
67931;BME280;63902;52.000;5.954;2023-05-20T02:56:58;101996.94;;;10.28;71.07
67931;BME280;63902;52.000;5.954;2023-05-20T02:57:58;101995.19;;;10.26;71.08
67931;BME280;63902;52.000;5.954;2023-05-20T02:58:59;101998.72;;;10.25;71.00
67931;BME280;63902;52.000;5.954;2023-05-20T02:59:59;101994.34;;;10.24;71.30
67931;BME280;63902;52.000;5.954;2023-05-20T03:01:00;101996.13;;;10.23;71.59
67931;BME280;63902;52.000;5.954;2023-05-20T03:02:00;101987.31;;;10.23;71.75
67931;BME280;63902;52.000;5.954;2023-05-20T03:03:00;101989.09;;;10.22;71.62
67931;BME280;63902;52.000;5.954;2023-05-20T03:04:01;101989.19;;;10.16;71.41
67931;BME280;63902;52.000;5.954;2023-05-20T03:05:02;102003.22;;;10.21;71.40
67931;BME280;63902;52.000;5.954;2023-05-20T03:06:02;101998.84;;;10.20;71.41
67931;BME280;63902;52.000;5.954;2023-05-20T03:07:04;101990.03;;;10.18;71.92
67931;BME280;63902;52.000;5.954;2023-05-20T03:08:07;101987.53;;;10.11;72.09
67931;BME280;63902;52.000;5.954;2023-05-20T03:09:09;101999.78;;;10.16;72.28
67931;BME280;63902;52.000;5.954;2023-05-20T03:10:09;101993.69;;;10.13;71.99
67931;BME280;63902;52.000;5.954;2023-05-20T03:11:10;101992.78;;;10.14;72.01
67931;BME280;63902;52.000;5.954;2023-05-20T03:12:10;102003.41;;;10.12;72.16
67931;BME280;63902;52.000;5.954;2023-05-20T03:13:11;102005.22;;;10.12;72.19
67931;BME280;63902;52.000;5.954;2023-05-20T03:14:11;101994.72;;;10.05;71.80
67931;BME280;63902;52.000;5.954;2023-05-20T03:15:12;102005.28;;;10.08;71.76
67931;BME280;63902;52.000;5.954;2023-05-20T03:16:12;102003.56;;;10.06;73.85
67931;BME280;63902;52.000;5.954;2023-05-20T03:17:13;102002.63;;;10.07;73.16
67931;BME280;63902;52.000;5.954;2023-05-20T03:18:13;102008.00;;;10.04;72.62
67931;BME280;63902;52.000;5.954;2023-05-20T03:19:14;102012.44;;;10.03;72.83
67931;BME280;63902;52.000;5.954;2023-05-20T03:20:14;102005.44;;;9.99;72.47
67931;BME280;63902;52.000;5.954;2023-05-20T03:21:15;102004.56;;;9.99;72.60
67931;BME280;63902;52.000;5.954;2023-05-20T03:22:15;102009.00;;;9.98;72.54
67931;BME280;63902;52.000;5.954;2023-05-20T03:23:16;102004.63;;;9.96;72.79
67931;BME280;63902;52.000;5.954;2023-05-20T03:24:17;102006.41;;;9.95;73.35
67931;BME280;63902;52.000;5.954;2023-05-20T03:25:18;102010.84;;;9.93;73.03
67931;BME280;63902;52.000;5.954;2023-05-20T03:26:18;102013.50;;;9.93;73.61
67931;BME280;63902;52.000;5.954;2023-05-20T03:27:19;102012.66;;;9.91;72.79
67931;BME280;63902;52.000;5.954;2023-05-20T03:28:19;102003.03;;;9.87;73.20
67931;BME280;63902;52.000;5.954;2023-05-20T03:29:22;102012.72;;;9.88;73.24
67931;BME280;63902;52.000;5.954;2023-05-20T03:30:23;102006.56;;;9.88;73.08
67931;BME280;63902;52.000;5.954;2023-05-20T03:31:23;101998.66;;;9.86;72.90
67931;BME280;63902;52.000;5.954;2023-05-20T03:32:24;102009.28;;;9.83;73.03
67931;BME280;63902;52.000;5.954;2023-05-20T03:33:24;102004.03;;;9.80;73.03
67931;BME280;63902;52.000;5.954;2023-05-20T03:34:25;102011.91;;;9.84;72.90
67931;BME280;63902;52.000;5.954;2023-05-20T03:35:25;102014.56;;;9.83;73.15
67931;BME280;63902;52.000;5.954;2023-05-20T03:36:26;102016.34;;;9.84;73.18
67931;BME280;63902;52.000;5.954;2023-05-20T03:37:26;102019.00;;;9.82;73.28
67931;BME280;63902;52.000;5.954;2023-05-20T03:38:26;102009.41;;;9.77;73.69
67931;BME280;63902;52.000;5.954;2023-05-20T03:39:28;102010.25;;;9.80;73.63
67931;BME280;63902;52.000;5.954;2023-05-20T03:40:29;102014.56;;;9.83;73.69
67931;BME280;63902;52.000;5.954;2023-05-20T03:41:29;102002.25;;;9.82;73.81
67931;BME280;63902;52.000;5.954;2023-05-20T03:42:30;102008.44;;;9.81;73.97
67931;BME280;63902;52.000;5.954;2023-05-20T03:43:30;102010.25;;;9.80;74.16
67931;BME280;63902;52.000;5.954;2023-05-20T03:44:31;102016.41;;;9.81;73.83
67931;BME280;63902;52.000;5.954;2023-05-20T03:45:31;102011.09;;;9.81;73.83
67931;BME280;63902;52.000;5.954;2023-05-20T03:46:32;102006.75;;;9.77;73.87
67931;BME280;63902;52.000;5.954;2023-05-20T03:47:32;102016.41;;;9.79;74.05
67931;BME280;63902;52.000;5.954;2023-05-20T03:48:33;102017.28;;;9.80;74.76
67931;BME280;63902;52.000;5.954;2023-05-20T03:49:33;102019.06;;;9.81;74.21
67931;BME280;63902;52.000;5.954;2023-05-20T03:50:33;102010.25;;;9.79;73.99
67931;BME280;63902;52.000;5.954;2023-05-20T03:51:34;102014.69;;;9.77;73.87
67931;BME280;63902;52.000;5.954;2023-05-20T03:52:35;102021.78;;;9.76;74.30
67931;BME280;63902;52.000;5.954;2023-05-20T03:53:35;102021.78;;;9.76;74.84
67931;BME280;63902;52.000;5.954;2023-05-20T03:54:37;102011.25;;;9.73;74.33
67931;BME280;63902;52.000;5.954;2023-05-20T03:55:37;102013.03;;;9.73;74.12
67931;BME280;63902;52.000;5.954;2023-05-20T03:56:38;102020.97;;;9.71;74.02
67931;BME280;63902;52.000;5.954;2023-05-20T03:57:38;102019.31;;;9.67;74.12
67931;BME280;63902;52.000;5.954;2023-05-20T03:58:39;102018.38;;;9.70;73.91
67931;BME280;63902;52.000;5.954;2023-05-20T03:59:39;102016.59;;;9.69;74.23
67931;BME280;63902;52.000;5.954;2023-05-20T04:00:40;102011.31;;;9.69;74.93
67931;BME280;63902;52.000;5.954;2023-05-20T04:01:40;102007.78;;;9.70;74.98
67931;BME280;63902;52.000;5.954;2023-05-20T04:02:41;102018.38;;;9.68;74.89
67931;BME280;63902;52.000;5.954;2023-05-20T04:03:41;102017.53;;;9.68;74.12
67931;BME280;63902;52.000;5.954;2023-05-20T04:04:42;102018.44;;;9.67;74.42
67931;BME280;63902;52.000;5.954;2023-05-20T04:05:42;102007.84;;;9.67;74.64
67931;BME280;63902;52.000;5.954;2023-05-20T04:06:43;102013.16;;;9.65;74.53
67931;BME280;63902;52.000;5.954;2023-05-20T04:07:43;102013.19;;;9.63;74.68
67931;BME280;63902;52.000;5.954;2023-05-20T04:08:44;102018.50;;;9.63;74.78
67931;BME280;63902;52.000;5.954;2023-05-20T04:09:45;102018.50;;;9.63;75.14
67931;BME280;63902;52.000;5.954;2023-05-20T04:10:46;102021.09;;;9.65;75.16
67931;BME280;63902;52.000;5.954;2023-05-20T04:11:46;102013.19;;;9.63;75.23
67931;BME280;63902;52.000;5.954;2023-05-20T04:12:47;102015.84;;;9.63;75.14
67931;BME280;63902;52.000;5.954;2023-05-20T04:13:47;102016.66;;;9.66;75.53
67931;BME280;63902;52.000;5.954;2023-05-20T04:14:48;102016.66;;;9.67;76.24
67931;BME280;63902;52.000;5.954;2023-05-20T04:15:48;102015.72;;;9.70;75.92
67931;BME280;63902;52.000;5.954;2023-05-20T04:16:49;102022.75;;;9.71;75.93
67931;BME280;63902;52.000;5.954;2023-05-20T04:17:50;102013.06;;;9.70;76.08
67931;BME280;63902;52.000;5.954;2023-05-20T04:18:50;102028.09;;;9.69;76.15
67931;BME280;63902;52.000;5.954;2023-05-20T04:19:51;102014.03;;;9.66;75.66
67931;BME280;63902;52.000;5.954;2023-05-20T04:20:53;102014.94;;;9.64;75.74
67931;BME280;63902;52.000;5.954;2023-05-20T04:21:54;102029.97;;;9.64;75.68
67931;BME280;63902;52.000;5.954;2023-05-20T04:22:55;102029.97;;;9.62;75.39
67931;BME280;63902;52.000;5.954;2023-05-20T04:23:55;102023.81;;;9.60;75.86
67931;BME280;63902;52.000;5.954;2023-05-20T04:24:57;102005.34;;;9.57;76.66
67931;BME280;63902;52.000;5.954;2023-05-20T04:25:58;102018.50;;;9.63;76.31
67931;BME280;63902;52.000;5.954;2023-05-20T04:26:58;102017.59;;;9.64;75.57
67931;BME280;63902;52.000;5.954;2023-05-20T04:27:59;102016.72;;;9.64;75.74
67931;BME280;63902;52.000;5.954;2023-05-20T04:29:00;102015.81;;;9.65;75.41
67931;BME280;63902;52.000;5.954;2023-05-20T04:30:01;102022.88;;;9.64;75.18
67931;BME280;63902;52.000;5.954;2023-05-20T04:31:02;102021.09;;;9.65;75.19
67931;BME280;63902;52.000;5.954;2023-05-20T04:32:03;102014.88;;;9.66;75.81
67931;BME280;63902;52.000;5.954;2023-05-20T04:33:03;102013.97;;;9.69;76.40
67931;BME280;63902;52.000;5.954;2023-05-20T04:34:04;102010.44;;;9.70;75.75
67931;BME280;63902;52.000;5.954;2023-05-20T04:35:05;102013.91;;;9.72;75.43
67931;BME280;63902;52.000;5.954;2023-05-20T04:36:08;102012.16;;;9.72;75.21
67931;BME280;63902;52.000;5.954;2023-05-20T04:37:08;102015.66;;;9.73;75.34
67931;BME280;63902;52.000;5.954;2023-05-20T04:38:09;102022.72;;;9.74;75.58
67931;BME280;63902;52.000;5.954;2023-05-20T04:39:09;102027.13;;;9.75;75.34
67931;BME280;63902;52.000;5.954;2023-05-20T04:40:12;102014.69;;;9.77;75.90
67931;BME280;63902;52.000;5.954;2023-05-20T04:41:13;102019.13;;;9.78;77.07
67931;BME280;63902;52.000;5.954;2023-05-20T04:42:13;102020.84;;;9.80;76.02
67931;BME280;63902;52.000;5.954;2023-05-20T04:43:14;102018.22;;;9.77;76.17
67931;BME280;63902;52.000;5.954;2023-05-20T04:44:14;102019.84;;;9.86;76.82
67931;BME280;63902;52.000;5.954;2023-05-20T04:45:15;102018.88;;;9.89;76.11
67931;BME280;63902;52.000;5.954;2023-05-20T04:46:15;102018.94;;;9.87;75.49
67931;BME280;63902;52.000;5.954;2023-05-20T04:47:16;102015.34;;;9.90;75.18
67931;BME280;63902;52.000;5.954;2023-05-20T04:48:16;102025.88;;;9.93;75.51
67931;BME280;63902;52.000;5.954;2023-05-20T04:49:17;102020.56;;;9.94;76.56
67931;BME280;63902;52.000;5.954;2023-05-20T04:50:17;102014.38;;;9.94;75.77
67931;BME280;63902;52.000;5.954;2023-05-20T04:51:18;102022.31;;;9.95;76.36
67931;BME280;63902;52.000;5.954;2023-05-20T04:52:18;102034.66;;;9.96;75.44
67931;BME280;63902;52.000;5.954;2023-05-20T04:53:19;102028.47;;;9.97;75.21
67931;BME280;63902;52.000;5.954;2023-05-20T04:54:20;102019.59;;;10.00;75.28
67931;BME280;63902;52.000;5.954;2023-05-20T04:55:22;102022.19;;;10.01;75.02
67931;BME280;63902;52.000;5.954;2023-05-20T04:56:22;102017.75;;;10.03;76.46
67931;BME280;63902;52.000;5.954;2023-05-20T04:57:23;102026.53;;;10.05;76.05
67931;BME280;63902;52.000;5.954;2023-05-20T04:58:23;102030.00;;;10.07;76.80
67931;BME280;63902;52.000;5.954;2023-05-20T04:59:24;102026.47;;;10.08;77.30
67931;BME280;63902;52.000;5.954;2023-05-20T05:00:24;102021.13;;;10.10;75.85
67931;BME280;63902;52.000;5.954;2023-05-20T05:01:25;102015.88;;;10.08;75.95
67931;BME280;63902;52.000;5.954;2023-05-20T05:02:25;102025.56;;;10.09;76.22
67931;BME280;63902;52.000;5.954;2023-05-20T05:03:26;102017.59;;;10.09;75.32
67931;BME280;63902;52.000;5.954;2023-05-20T05:04:26;102023.78;;;10.10;75.86
67931;BME280;63902;52.000;5.954;2023-05-20T05:05:27;102027.28;;;10.11;77.33
67931;BME280;63902;52.000;5.954;2023-05-20T05:06:27;102018.47;;;10.12;75.80
67931;BME280;63902;52.000;5.954;2023-05-20T05:07:28;102025.53;;;10.11;75.29
67931;BME280;63902;52.000;5.954;2023-05-20T05:08:28;102021.94;;;10.14;76.31
67931;BME280;63902;52.000;5.954;2023-05-20T05:09:28;102024.56;;;10.17;76.14
67931;BME280;63902;52.000;5.954;2023-05-20T05:10:30;102011.28;;;10.17;75.23
67931;BME280;63902;52.000;5.954;2023-05-20T05:11:31;102018.34;;;10.18;75.09
67931;BME280;63902;52.000;5.954;2023-05-20T05:12:32;102019.19;;;10.18;74.92
67931;BME280;63902;52.000;5.954;2023-05-20T05:13:32;102013.88;;;10.20;74.79
67931;BME280;63902;52.000;5.954;2023-05-20T05:14:33;102015.63;;;10.21;74.74
67931;BME280;63902;52.000;5.954;2023-05-20T05:15:33;102020.00;;;10.22;74.56
67931;BME280;63902;52.000;5.954;2023-05-20T05:16:34;102018.19;;;10.24;75.79
67931;BME280;63902;52.000;5.954;2023-05-20T05:17:34;102022.59;;;10.28;74.96
67931;BME280;63902;52.000;5.954;2023-05-20T05:18:34;102013.72;;;10.27;74.50
67931;BME280;63902;52.000;5.954;2023-05-20T05:19:35;102014.53;;;10.33;75.92